createdAt,value
2018-07-30T00:01:19.437Z,101723.17
2018-07-30T00:03:03.652Z,101766.75
2018-07-30T00:04:41.143Z,101812.13
2018-07-30T00:06:20.234Z,101862.23
2018-07-30T00:07:56.475Z,101856.36
2018-07-30T00:09:32.809Z,101801.50
2018-07-30T00:11:09.277Z,101819.48
2018-07-30T00:12:46.168Z,101765.61
2018-07-30T00:14:22.769Z,101763.95
2018-07-30T00:15:58.997Z,101800.72
2018-07-30T00:17:35.474Z,101736.88
2018-07-30T00:19:13.614Z,101597.02
2018-07-30T00:20:51.002Z,101453.03
2018-07-30T00:22:27.358Z,101313.27
2018-07-30T00:24:03.850Z,101277.48
2018-07-30T00:25:41.505Z,101300.42
2018-07-30T00:27:17.991Z,101391.80
2018-07-30T00:28:56.608Z,101524.47
2018-07-30T00:30:33.307Z,101618.60
2018-07-30T00:32:10.079Z,101679.66
2018-07-30T00:33:46.476Z,101711.48
2018-07-30T00:37:06.026Z,101736.20
2018-07-30T00:38:42.828Z,101700.66
2018-07-30T00:40:19.396Z,101581.91
2018-07-30T00:41:55.870Z,101624.08
2018-07-30T00:45:08.474Z,101681.03
2018-07-30T00:46:45.520Z,101749.31
2018-07-30T00:48:21.997Z,101734.97
2018-07-30T00:49:59.394Z,101770.42
2018-07-30T00:51:36.394Z,101749.31
2018-07-30T00:53:13.289Z,101743.05
2018-07-30T00:54:49.907Z,101806.34
2018-07-30T00:56:26.401Z,101832.55
2018-07-30T00:58:03.139Z,101808.20
2018-07-30T00:59:40.732Z,101785.79
2018-07-30T01:01:17.715Z,101759.80
2018-07-30T01:02:54.186Z,101745.44
2018-07-30T01:04:36.664Z,101747.30
2018-07-30T01:06:14.081Z,101714.45
2018-07-30T01:07:50.438Z,101718.57
2018-07-30T01:09:27.608Z,101763.41
2018-07-30T01:11:04.570Z,101772.03
2018-07-30T01:12:41.055Z,101763.02
2018-07-30T01:14:17.616Z,101757.64
2018-07-30T01:15:54.444Z,101745.05
2018-07-30T01:17:31.256Z,101664.35
2018-07-30T01:19:11.466Z,101541.88
2018-07-30T01:20:49.809Z,101393.72
2018-07-30T01:22:26.266Z,101244.54
2018-07-30T01:24:02.839Z,101092.36
2018-07-30T01:25:39.372Z,100969.82
2018-07-30T01:27:15.902Z,100959.25
2018-07-30T01:28:53.230Z,100973.92
2018-07-30T01:30:30.851Z,101029.40
2018-07-30T01:32:08.074Z,101122.47
2018-07-30T01:33:44.508Z,101142.05
2018-07-30T01:35:21.346Z,101158.63
2018-07-30T01:36:57.941Z,101128.25
2018-07-30T01:38:34.464Z,101192.22
2018-07-30T01:40:11.843Z,101233.35
2018-07-30T01:41:48.674Z,101273.69
2018-07-30T01:43:25.050Z,101285.75
2018-07-30T01:45:01.476Z,101326.03
2018-07-30T01:46:39.270Z,101357.54
2018-07-30T01:48:17.390Z,101387.62
2018-07-30T01:49:53.978Z,101368.77
2018-07-30T01:51:32.188Z,101404.18
2018-07-30T01:53:09.631Z,101371.89
2018-07-30T01:54:46.842Z,101404.28
2018-07-30T01:56:23.977Z,101388.59
2018-07-30T01:58:00.739Z,101320.88
2018-07-30T01:59:37.477Z,101223.84
2018-07-30T02:01:14.651Z,101152.36
2018-07-30T02:02:51.766Z,101061.49
2018-07-30T02:04:28.127Z,100939.47
2018-07-30T02:06:05.125Z,100945.67
2018-07-30T02:07:42.957Z,101046.78
2018-07-30T02:09:19.450Z,101140.66
2018-07-30T02:10:56.027Z,101202.91
2018-07-30T02:12:32.471Z,101226.20
2018-07-30T02:14:09.390Z,101220.83
2018-07-30T02:15:46.225Z,101184.96
2018-07-30T02:17:22.874Z,101168.03
2018-07-30T02:18:59.417Z,101154.60
2018-07-30T02:20:36.292Z,101128.77
2018-07-30T02:22:12.862Z,101159.58
2018-07-30T02:23:49.263Z,101186.96
2018-07-30T02:25:26.610Z,101195.91
2018-07-30T02:27:03.574Z,101242.36
2018-07-30T02:28:40.016Z,101273.75
2018-07-30T02:30:19.764Z,101195.41
2018-07-30T02:31:56.860Z,100953.23
2018-07-30T02:33:33.821Z,100806.53
2018-07-30T02:35:10.948Z,100668.88
2018-07-30T02:36:48.944Z,100606.95
2018-07-30T02:38:25.451Z,100552.97
2018-07-30T02:40:03.419Z,100458.36
2018-07-30T02:41:39.926Z,100310.07
2018-07-30T02:43:16.440Z,100275.40
2018-07-30T02:44:53.115Z,100241.95
2018-07-30T02:46:31.604Z,100128.25
2018-07-30T02:48:07.961Z,100054.49
2018-07-30T02:49:44.433Z,100037.56
2018-07-30T02:51:21.309Z,100053.13
2018-07-30T02:52:58.299Z,100123.41
2018-07-30T02:54:35.407Z,100270.55
2018-07-30T02:56:11.965Z,100431.30
2018-07-30T02:57:49.348Z,100523.56
2018-07-30T02:59:26.443Z,100576.66
2018-07-30T03:01:03.667Z,100643.06
2018-07-30T03:02:40.199Z,100632.89
2018-07-30T03:04:17.057Z,100519.62
2018-07-30T03:05:53.959Z,100461.30
2018-07-30T03:07:30.542Z,100311.31
2018-07-30T03:09:11.068Z,100214.32
2018-07-30T03:10:47.701Z,100121.81
2018-07-30T03:12:24.702Z,100025.80
2018-07-30T03:14:01.159Z,99936.16
2018-07-30T03:15:39.201Z,99859.23
2018-07-30T03:17:15.615Z,99822.17
2018-07-30T03:18:53.706Z,99772.27
2018-07-30T03:20:30.204Z,99747.94
2018-07-30T03:22:06.829Z,99717.67
2018-07-30T03:23:43.300Z,99729.67
2018-07-30T03:25:20.693Z,99742.77
2018-07-30T03:26:57.194Z,99713.87
2018-07-30T03:28:33.940Z,99712.13
2018-07-30T03:30:11.691Z,99714.59
2018-07-30T03:31:48.654Z,99745.83
2018-07-30T03:33:24.999Z,99728.55
2018-07-30T03:35:01.444Z,99705.08
2018-07-30T03:36:37.884Z,99708.67
2018-07-30T03:38:15.043Z,99702.14
2018-07-30T03:39:51.573Z,99704.37
2018-07-30T03:41:28.139Z,99677.81
2018-07-30T03:43:04.731Z,99669.26
2018-07-30T03:44:41.826Z,99683.47
2018-07-30T03:46:18.709Z,99688.42
2018-07-30T03:47:55.450Z,99752.89
2018-07-30T03:49:31.917Z,99758.55
2018-07-30T03:51:08.889Z,99753.63
2018-07-30T03:52:46.636Z,99733.87
2018-07-30T03:54:23.624Z,99699.05
2018-07-30T03:56:00.037Z,99668.17
2018-07-30T03:57:36.933Z,99642.48
2018-07-30T03:59:13.415Z,99625.72
2018-07-30T04:00:50.852Z,99641.25
2018-07-30T04:02:27.310Z,99708.19
2018-07-30T04:04:04.327Z,99711.27
2018-07-30T04:05:40.765Z,99717.58
2018-07-30T04:07:17.234Z,99654.71
2018-07-30T04:08:53.880Z,99597.07
2018-07-30T04:10:30.370Z,99567.48
2018-07-30T04:12:06.874Z,99536.88
2018-07-30T04:13:43.894Z,99545.25
2018-07-30T04:15:20.930Z,99551.55
2018-07-30T04:16:58.770Z,99531.56
2018-07-30T04:18:35.208Z,99522.83
2018-07-30T04:20:11.681Z,99502.83
2018-07-30T04:21:48.322Z,99475.10
2018-07-30T04:23:27.189Z,99478.68
2018-07-30T04:25:03.708Z,99524.68
2018-07-30T04:26:40.482Z,99557.84
2018-07-30T04:28:18.099Z,99561.05
2018-07-30T04:29:54.923Z,99521.96
2018-07-30T04:31:31.682Z,99539.34
2018-07-30T04:33:09.935Z,99620.52
2018-07-30T04:34:46.459Z,99714.95
2018-07-30T04:36:23.097Z,99735.84
2018-07-30T04:38:01.314Z,99759.30
2018-07-30T04:39:37.806Z,99729.16
2018-07-30T04:41:15.100Z,99778.06
2018-07-30T04:42:52.142Z,99749.30
2018-07-30T04:44:28.735Z,99805.61
2018-07-30T04:46:06.381Z,99912.63
2018-07-30T04:47:42.917Z,100018.34
2018-07-30T04:49:20.229Z,100101.11
2018-07-30T04:50:57.180Z,100148.75
2018-07-30T04:52:33.804Z,100147.01
2018-07-30T04:54:10.246Z,100162.13
2018-07-30T04:55:47.079Z,100227.98
2018-07-30T04:57:23.807Z,100216.48
2018-07-30T04:59:01.010Z,100219.20
2018-07-30T05:00:37.611Z,100194.80
2018-07-30T05:02:14.437Z,100206.41
2018-07-30T05:03:52.697Z,100141.44
2018-07-30T05:05:29.265Z,100112.59
2018-07-30T05:07:06.037Z,100016.60
2018-07-30T05:08:42.941Z,100141.17
2018-07-30T05:10:19.640Z,100257.67
2018-07-30T05:11:56.067Z,100394.86
2018-07-30T05:13:32.388Z,100428.19
2018-07-30T05:15:09.328Z,100508.14
2018-07-30T05:16:46.637Z,100497.87
2018-07-30T05:18:23.061Z,100567.48
2018-07-30T05:19:59.563Z,100663.00
2018-07-30T05:21:37.956Z,100775.99
2018-07-30T05:23:14.334Z,100832.16
2018-07-30T05:24:51.648Z,100754.48
2018-07-30T05:26:28.082Z,100628.27
2018-07-30T05:28:04.905Z,100581.00
2018-07-30T05:29:41.863Z,100505.67
2018-07-30T05:31:18.789Z,100545.09
2018-07-30T05:32:55.192Z,100588.79
2018-07-30T05:34:32.115Z,100548.06
2018-07-30T05:36:08.585Z,100510.73
2018-07-30T05:37:45.035Z,100670.42
2018-07-30T05:39:21.516Z,100665.59
2018-07-30T05:40:58.398Z,100638.30
2018-07-30T05:42:35.758Z,100719.59
2018-07-30T05:44:12.389Z,100791.48
2018-07-30T05:45:49.156Z,100845.04
2018-07-30T05:47:32.955Z,100942.98
2018-07-30T05:50:38.479Z,101152.59
2018-07-30T05:52:14.949Z,101279.80
2018-07-30T05:53:51.859Z,101285.77
2018-07-30T05:55:28.259Z,101271.81
2018-07-30T05:57:05.773Z,101156.89
2018-07-30T05:58:42.281Z,101100.00
2018-07-30T06:00:21.465Z,100962.34
2018-07-30T06:02:02.275Z,100844.38
2018-07-30T06:03:40.550Z,100788.72
2018-07-30T06:05:17.792Z,100664.69
2018-07-30T06:06:55.500Z,100574.20
2018-07-30T06:08:31.895Z,100588.45
2018-07-30T06:10:08.597Z,100539.34
2018-07-30T06:11:46.459Z,100458.23
2018-07-30T06:13:23.331Z,100365.55
2018-07-30T06:15:04.094Z,100364.67
2018-07-30T06:16:43.603Z,100412.52
2018-07-30T06:18:22.196Z,100332.20
2018-07-30T06:21:37.495Z,100372.36
2018-07-30T06:23:22.174Z,100386.97
2018-07-30T06:24:59.715Z,100318.31
2018-07-30T06:26:36.667Z,100336.14
2018-07-30T06:28:14.493Z,100446.34
2018-07-30T06:30:01.956Z,100482.43
2018-07-30T06:31:45.430Z,100466.06
2018-07-30T06:33:27.005Z,100449.94
2018-07-30T06:35:04.379Z,100463.45
2018-07-30T06:36:42.236Z,100558.31
2018-07-30T06:38:20.980Z,100606.45
2018-07-30T06:39:59.539Z,100655.22
2018-07-30T06:41:44.924Z,100689.47
2018-07-30T06:43:22.290Z,100758.27
2018-07-30T06:45:01.516Z,100963.66
2018-07-30T06:46:45.153Z,101179.23
2018-07-30T06:48:22.262Z,101341.37
2018-07-30T06:50:01.676Z,101375.00
2018-07-30T06:51:46.271Z,101443.67
2018-07-30T06:53:28.168Z,101627.11
2018-07-30T06:55:07.006Z,101680.55
2018-07-30T06:56:59.975Z,101624.86
2018-07-30T06:58:37.048Z,101544.14
2018-07-30T07:00:15.166Z,101697.33
2018-07-30T07:01:53.940Z,101830.59
2018-07-30T07:03:31.728Z,101971.77
2018-07-30T07:05:28.659Z,102017.05
2018-07-30T07:07:12.779Z,102038.80
2018-07-30T07:08:56.231Z,102037.42
2018-07-30T07:10:41.358Z,102097.31
2018-07-30T07:12:24.265Z,101935.99
2018-07-30T07:14:39.191Z,101938.24
2018-07-30T07:16:32.670Z,102198.53
2018-07-30T07:18:16.874Z,102268.88
2018-07-30T07:20:00.906Z,102276.03
2018-07-30T07:21:45.572Z,102232.42
2018-07-30T07:23:24.599Z,101921.63
2018-07-30T07:25:08.991Z,101823.67
2018-07-30T07:26:48.056Z,101719.92
2018-07-30T07:28:28.529Z,101910.86
2018-07-30T07:30:13.552Z,102000.27
2018-07-30T07:31:51.658Z,102128.05
2018-07-30T07:33:32.431Z,102237.81
2018-07-30T07:35:35.130Z,102385.59
2018-07-30T07:37:15.618Z,102444.30
2018-07-30T07:38:55.414Z,102414.54
2018-07-30T07:40:34.916Z,102431.28
2018-07-30T07:42:11.296Z,102455.11
2018-07-30T07:43:48.226Z,102491.57
2018-07-30T07:45:26.203Z,102194.24
2018-07-30T07:47:04.587Z,102047.60
2018-07-30T07:48:45.241Z,102169.97
2018-07-30T07:50:27.243Z,102418.66
2018-07-30T07:53:49.820Z,102456.09
2018-07-30T07:55:33.932Z,102122.75
2018-07-30T07:57:13.221Z,101895.30
2018-07-30T08:00:58.153Z,102095.73
2018-07-30T08:02:36.944Z,102274.94
2018-07-30T08:04:13.832Z,102366.86
2018-07-30T08:05:52.558Z,102208.27
2018-07-30T08:07:32.436Z,101970.32
2018-07-30T08:09:14.225Z,101795.13
2018-07-30T08:11:02.015Z,101766.79
2018-07-30T08:12:40.703Z,101909.29
2018-07-30T08:14:25.155Z,102200.13
2018-07-30T08:16:03.695Z,102460.52
2018-07-30T08:17:49.096Z,102633.28
2018-07-30T08:19:26.734Z,102493.07
2018-07-30T08:21:13.478Z,102506.59
2018-07-30T08:24:38.671Z,102771.03
2018-07-30T08:26:37.899Z,102981.66
2018-07-30T08:28:14.528Z,103082.07
2018-07-30T08:29:52.956Z,103093.80
2018-07-30T08:31:30.731Z,103145.77
2018-07-30T08:33:10.449Z,103031.81
2018-07-30T08:34:48.502Z,102600.36
2018-07-30T08:36:32.204Z,102243.03
2018-07-30T08:38:38.606Z,102207.38
2018-07-30T08:40:16.370Z,102365.98
2018-07-30T08:42:06.673Z,102484.03
2018-07-30T08:43:44.084Z,102834.27
2018-07-30T08:45:20.372Z,103025.52
2018-07-30T08:46:58.075Z,103217.83
2018-07-30T08:48:40.004Z,103359.08
2018-07-30T08:50:17.184Z,103437.51
2018-07-30T08:51:56.120Z,103512.73
2018-07-30T08:53:37.389Z,103497.27
2018-07-30T08:55:18.966Z,103475.17
2018-07-30T08:56:58.550Z,103451.98
2018-07-30T09:00:28.680Z,103320.17
2018-07-30T09:02:07.001Z,103346.84
2018-07-30T09:03:43.462Z,103459.20
2018-07-30T09:05:22.215Z,103692.80
2018-07-30T09:06:58.812Z,103750.05
2018-07-30T09:08:37.281Z,103716.88
2018-07-30T09:10:14.965Z,103793.70
2018-07-30T09:11:53.483Z,103741.84
2018-07-30T09:13:31.339Z,103551.33
2018-07-30T09:15:15.114Z,103527.25
2018-07-30T09:16:59.928Z,103563.55
2018-07-30T09:18:40.540Z,103690.52
2018-07-30T09:20:18.912Z,103727.27
2018-07-30T09:21:56.749Z,103600.14
2018-07-30T09:23:34.394Z,103401.55
2018-07-30T09:25:15.624Z,103275.55
2018-07-30T09:26:56.084Z,103151.10
2018-07-30T09:28:32.637Z,102997.80
2018-07-30T09:30:11.975Z,103106.70
2018-07-30T09:31:53.936Z,103239.70
2018-07-30T09:33:31.347Z,103216.16
2018-07-30T09:35:12.817Z,103249.14
2018-07-30T09:36:52.959Z,103506.56
2018-07-30T09:38:31.650Z,103601.36
2018-07-30T09:40:10.599Z,103636.19
2018-07-30T09:41:53.199Z,103663.42
2018-07-30T09:43:33.018Z,103695.20
2018-07-30T09:45:15.422Z,103660.25
2018-07-30T09:46:51.955Z,103173.45
2018-07-30T09:48:35.728Z,102636.93
2018-07-30T09:50:13.719Z,102405.60
2018-07-30T09:51:51.744Z,102350.48
2018-07-30T09:53:29.499Z,102481.56
2018-07-30T09:55:07.677Z,102688.16
2018-07-30T09:56:48.038Z,102761.31
2018-07-30T09:58:25.216Z,102978.24
2018-07-30T10:00:01.721Z,103258.23
2018-07-30T10:01:39.187Z,103435.89
2018-07-30T10:03:16.790Z,103549.23
2018-07-30T10:04:55.478Z,103570.12
2018-07-30T10:06:32.060Z,103435.81
2018-07-30T10:08:10.719Z,103291.73
2018-07-30T10:09:48.408Z,103275.89
2018-07-30T10:11:24.980Z,103327.59
2018-07-30T10:13:03.032Z,103401.72
2018-07-30T10:14:39.494Z,103390.86
2018-07-30T10:16:17.244Z,103140.48
2018-07-30T10:17:54.739Z,103244.06
2018-07-30T10:19:31.249Z,103112.92
2018-07-30T10:21:09.083Z,103296.59
2018-07-30T10:22:48.015Z,103369.90
2018-07-30T10:24:25.209Z,103230.86
2018-07-30T10:26:09.526Z,102987.01
2018-07-30T10:27:46.935Z,102796.72
2018-07-30T10:29:24.777Z,103022.32
2018-07-30T10:31:01.650Z,102877.98
2018-07-30T10:32:42.341Z,102730.30
2018-07-30T10:34:21.473Z,102918.27
2018-07-30T10:35:59.498Z,103166.11
2018-07-30T10:37:42.021Z,103338.09
2018-07-30T10:39:20.126Z,103394.62
2018-07-30T10:41:00.544Z,103565.23
2018-07-30T10:42:45.625Z,103669.12
2018-07-30T10:44:24.886Z,103691.77
2018-07-30T10:46:01.383Z,103702.61
2018-07-30T10:47:41.309Z,103706.75
2018-07-30T10:49:30.103Z,103781.72
2018-07-30T10:51:10.703Z,103822.99
2018-07-30T10:52:51.749Z,103741.71
2018-07-30T10:54:31.221Z,103716.73
2018-07-30T10:56:10.760Z,103777.46
2018-07-30T10:58:09.496Z,103805.20
2018-07-30T10:59:51.403Z,103827.95
2018-07-30T11:03:44.204Z,103860.13
2018-07-30T11:05:31.910Z,103780.14
2018-07-30T11:07:14.876Z,103610.03
2018-07-30T11:09:09.231Z,103702.05
2018-07-30T11:10:51.213Z,103789.53
2018-07-30T11:12:30.848Z,103761.91
2018-07-30T11:14:12.509Z,103680.73
2018-07-30T11:15:50.235Z,103752.40
2018-07-30T11:17:40.385Z,103710.54
2018-07-30T11:19:25.675Z,103836.37
2018-07-30T11:21:03.446Z,103962.69
2018-07-30T11:22:43.216Z,103973.06
2018-07-30T11:24:21.961Z,103818.98
2018-07-30T11:26:02.819Z,103599.20
2018-07-30T11:27:39.281Z,103715.89
2018-07-30T11:29:16.987Z,103773.08
2018-07-30T11:30:55.590Z,103598.72
2018-07-30T11:32:34.868Z,103452.67
2018-07-30T11:34:12.717Z,103315.34
2018-07-30T11:35:49.638Z,103431.27
2018-07-30T11:37:27.401Z,103613.94
2018-07-30T11:39:04.230Z,103472.98
2018-07-30T11:40:41.573Z,103365.43
2018-07-30T11:42:18.624Z,103469.26
2018-07-30T11:43:55.923Z,103703.39
2018-07-30T11:45:33.570Z,103809.16
2018-07-30T11:47:10.688Z,103906.80
2018-07-30T11:48:50.071Z,104039.45
2018-07-30T11:50:29.917Z,104082.80
2018-07-30T11:52:07.618Z,104072.31
2018-07-30T11:53:44.199Z,104075.89
2018-07-30T11:55:27.362Z,104086.39
2018-07-30T11:57:06.810Z,103863.94
2018-07-30T11:58:44.475Z,103527.14
2018-07-30T12:00:22.369Z,103350.75
2018-07-30T12:02:00.638Z,103117.13
2018-07-30T12:03:38.594Z,102914.97
2018-07-30T12:05:18.429Z,102919.38
2018-07-30T12:06:56.123Z,103126.08
2018-07-30T12:08:35.052Z,103293.50
2018-07-30T12:10:14.480Z,103352.42
2018-07-30T12:11:59.958Z,103598.51
2018-07-30T12:13:39.207Z,103792.80
2018-07-30T12:15:25.626Z,104004.53
2018-07-30T12:17:14.309Z,104230.29
2018-07-30T12:19:02.545Z,104320.05
2018-07-30T12:20:42.181Z,104257.16
2018-07-30T12:22:21.087Z,103785.48
2018-07-30T12:24:07.190Z,103628.91
2018-07-30T12:31:34.509Z,103895.77
2018-07-30T12:33:10.993Z,104054.89
2018-07-30T12:34:51.838Z,104168.59
2018-07-30T12:36:29.255Z,104099.41
2018-07-30T12:38:12.235Z,104027.52
2018-07-30T12:39:49.533Z,103978.84
2018-07-30T12:41:27.592Z,103987.95
2018-07-30T12:43:05.850Z,104071.05
2018-07-30T12:44:44.386Z,103961.52
2018-07-30T12:46:24.190Z,103784.27
2018-07-30T12:48:03.462Z,103751.54
2018-07-30T12:49:40.200Z,103959.08
2018-07-30T12:51:16.811Z,104167.98
2018-07-30T12:52:54.956Z,104244.37
2018-07-30T12:54:32.729Z,104425.66
2018-07-30T12:56:10.485Z,104494.07
2018-07-30T12:57:47.885Z,104389.27
2018-07-30T12:59:24.803Z,104460.35
2018-07-30T13:01:07.470Z,104561.48
2018-07-30T13:02:46.248Z,104584.30
2018-07-30T13:04:24.967Z,104662.23
2018-07-30T13:06:05.180Z,104700.11
2018-07-30T13:07:43.506Z,104729.30
2018-07-30T13:09:24.720Z,104723.83
2018-07-30T13:11:03.384Z,104822.86
2018-07-30T13:12:41.180Z,104833.31
2018-07-30T13:14:20.994Z,104856.64
2018-07-30T13:15:58.354Z,104806.70
2018-07-30T13:17:36.524Z,104741.03
2018-07-30T13:19:13.762Z,104731.92
2018-07-30T13:20:50.400Z,104588.97
2018-07-30T13:22:28.723Z,104555.13
2018-07-30T13:24:06.443Z,104518.63
2018-07-30T13:25:43.987Z,104244.73
2018-07-30T13:27:20.579Z,104035.31
2018-07-30T13:28:58.625Z,103850.34
2018-07-30T13:30:38.738Z,103862.99
2018-07-30T13:32:20.588Z,103679.86
2018-07-30T13:34:00.615Z,103537.83
2018-07-30T13:35:38.628Z,103482.38
2018-07-30T13:37:16.788Z,103376.28
2018-07-30T13:38:53.571Z,103333.72
2018-07-30T13:40:31.272Z,103450.13
2018-07-30T13:42:12.528Z,103672.26
2018-07-30T13:43:53.506Z,103833.97
2018-07-30T13:45:32.600Z,103988.91
2018-07-30T13:47:14.667Z,104020.72
2018-07-30T13:48:52.789Z,104254.13
2018-07-30T13:50:33.980Z,104391.75
2018-07-30T13:52:12.936Z,104477.89
2018-07-30T13:53:50.651Z,104557.55
2018-07-30T13:55:27.147Z,104629.20
2018-07-30T13:57:09.656Z,104736.88
2018-07-30T13:58:48.016Z,104780.36
2018-07-30T14:00:29.876Z,104764.77
2018-07-30T14:02:09.092Z,104617.28
2018-07-30T14:03:46.320Z,104465.42
2018-07-30T14:05:23.289Z,104555.68
2018-07-30T14:07:02.337Z,104652.31
2018-07-30T14:08:42.470Z,104735.34
2018-07-30T14:10:21.538Z,104818.05
2018-07-30T14:13:52.775Z,104899.80
2018-07-30T14:15:34.253Z,104918.03
2018-07-30T14:17:15.160Z,104988.80
2018-07-30T14:18:54.406Z,104827.01
2018-07-30T14:20:51.582Z,104533.92
2018-07-30T14:22:33.266Z,104592.75
2018-07-30T14:24:11.221Z,104668.87
2018-07-30T14:25:52.975Z,104640.99
2018-07-30T14:27:30.647Z,104539.69
2018-07-30T14:29:17.377Z,104660.55
2018-07-30T14:30:54.670Z,104828.47
2018-07-30T14:32:44.159Z,104612.52
2018-07-30T14:34:21.319Z,104205.03
2018-07-30T14:35:58.682Z,104218.69
2018-07-30T14:37:35.780Z,104301.94
2018-07-30T14:39:12.451Z,104354.72
2018-07-30T14:40:51.743Z,104572.67
2018-07-30T14:42:32.245Z,104695.36
2018-07-30T14:44:08.986Z,104674.82
2018-07-30T14:45:46.702Z,104640.47
2018-07-30T14:47:23.661Z,104633.13
2018-07-30T14:49:00.683Z,104682.88
2018-07-30T14:52:20.623Z,104672.38
2018-07-30T14:53:58.671Z,104694.23
2018-07-30T14:55:38.096Z,104729.19
2018-07-30T14:57:15.899Z,104763.13
2018-07-30T14:58:54.454Z,104641.13
2018-07-30T15:00:35.867Z,104637.87
2018-07-30T15:02:12.979Z,104671.14
2018-07-30T15:03:49.846Z,104686.62
2018-07-30T15:05:26.643Z,104660.13
2018-07-30T15:07:04.611Z,104604.91
2018-07-30T15:08:41.496Z,104702.50
2018-07-30T15:10:40.829Z,104602.98
2018-07-30T15:12:19.411Z,104569.13
2018-07-30T15:13:56.887Z,104751.27
2018-07-30T15:15:35.078Z,104848.88
2018-07-30T15:17:33.580Z,104831.96
2018-07-30T15:19:11.001Z,104854.84
2018-07-30T15:20:48.656Z,104738.59
2018-07-30T15:22:25.475Z,104693.92
2018-07-30T15:24:14.941Z,104686.08
2018-07-30T15:25:58.475Z,104685.59
2018-07-30T15:27:35.061Z,104709.31
2018-07-30T15:29:11.644Z,104716.59
2018-07-30T15:30:48.586Z,104700.09
2018-07-30T15:32:25.574Z,104671.31
2018-07-30T15:34:02.063Z,104692.30
2018-07-30T15:35:39.300Z,104711.86
2018-07-30T15:37:19.846Z,104672.13
2018-07-30T15:38:57.635Z,104636.13
2018-07-30T15:40:34.613Z,104655.68
2018-07-30T15:42:13.397Z,104687.05
2018-07-30T15:43:51.613Z,104702.64
2018-07-30T15:45:29.780Z,104724.00
2018-07-30T15:47:07.262Z,104661.94
2018-07-30T15:48:45.924Z,104576.51
2018-07-30T15:50:44.111Z,104607.16
2018-07-30T15:52:22.488Z,104679.55
2018-07-30T15:54:00.666Z,104723.40
2018-07-30T15:55:37.311Z,104754.02
2018-07-30T15:57:14.923Z,104798.23
2018-07-30T15:59:12.954Z,104765.67
2018-07-30T16:01:56.494Z,104737.38
2018-07-30T16:03:36.080Z,104716.83
2018-07-30T16:05:17.589Z,104792.11
2018-07-30T16:06:54.185Z,104821.22
2018-07-30T16:08:32.719Z,104820.73
2018-07-30T16:10:09.616Z,104804.41
2018-07-30T16:11:49.797Z,104728.97
2018-07-30T16:13:28.024Z,104733.05
2018-07-30T16:15:23.751Z,104714.76
2018-07-30T16:17:04.260Z,104589.67
2018-07-30T16:18:40.944Z,104520.83
2018-07-30T16:20:19.195Z,104596.41
2018-07-30T16:22:11.391Z,104670.67
2018-07-30T16:23:50.259Z,104740.02
2018-07-30T16:25:35.804Z,104719.47
2018-07-30T16:27:14.621Z,104471.31
2018-07-30T16:28:55.729Z,104426.13
2018-07-30T16:30:33.829Z,104521.85
2018-07-30T16:32:14.781Z,104306.59
2018-07-30T16:34:00.430Z,104256.52
2018-07-30T16:38:11.663Z,104280.92
2018-07-30T16:39:54.521Z,104245.44
2018-07-30T16:41:33.292Z,104319.59
2018-07-30T16:43:23.826Z,104400.77
2018-07-30T16:45:04.912Z,104417.12
2018-07-30T16:47:00.676Z,104372.42
2018-07-30T16:48:47.189Z,104456.80
2018-07-30T16:50:53.446Z,104397.88
2018-07-30T16:52:37.697Z,104315.81
2018-07-30T16:54:25.561Z,104454.02
2018-07-30T16:56:04.896Z,104531.41
2018-07-30T16:57:42.837Z,104474.38
2018-07-30T16:59:21.243Z,104462.59
2018-07-30T17:01:00.180Z,104395.92
2018-07-30T17:02:37.942Z,104445.70
2018-07-30T17:04:16.099Z,104511.78
2018-07-30T17:05:53.355Z,104594.31
2018-07-30T17:07:31.338Z,104627.13
2018-07-30T17:09:12.588Z,104632.11
2018-07-30T17:10:50.931Z,104667.71
2018-07-30T17:12:31.788Z,104545.74
2018-07-30T17:14:12.084Z,104601.91
2018-07-30T17:15:51.968Z,104599.61
2018-07-30T17:17:32.563Z,104508.73
2018-07-30T17:19:09.645Z,104475.48
2018-07-30T17:20:48.904Z,104485.92
2018-07-30T17:22:27.605Z,104335.30
2018-07-30T17:24:06.342Z,104273.05
2018-07-30T17:25:44.459Z,104327.66
2018-07-30T17:27:22.640Z,104372.19
2018-07-30T17:29:01.214Z,104431.97
2018-07-30T17:30:39.692Z,104415.61
2018-07-30T17:32:19.706Z,104352.94
2018-07-30T17:33:56.680Z,104369.00
2018-07-30T17:35:34.745Z,104353.34
2018-07-30T17:37:14.740Z,104355.72
2018-07-30T17:39:11.213Z,104310.55
2018-07-30T17:40:50.271Z,104254.95
2018-07-30T17:42:38.470Z,104236.82
2018-07-30T17:44:34.317Z,104178.05
2018-07-30T17:46:16.672Z,104099.23
2018-07-30T17:47:58.048Z,103935.44
2018-07-30T17:49:39.131Z,104026.41
2018-07-30T17:51:20.030Z,104150.23
2018-07-30T17:52:58.505Z,104152.79
2018-07-30T17:54:38.712Z,104180.07
2018-07-30T17:56:17.832Z,104189.19
2018-07-30T17:57:54.851Z,104180.97
2018-07-30T17:59:35.621Z,104163.21
2018-07-30T18:01:13.783Z,104098.55
2018-07-30T18:02:52.468Z,104165.98
2018-07-30T18:04:33.726Z,104228.71
2018-07-30T18:06:12.003Z,104304.30
2018-07-30T18:07:54.710Z,104353.47
2018-07-30T18:09:47.699Z,104336.14
2018-07-30T18:11:26.401Z,104306.09
2018-07-30T18:13:04.963Z,104215.43
2018-07-30T18:17:25.921Z,104113.31
2018-07-30T18:19:05.304Z,104114.21
2018-07-30T18:20:47.533Z,104105.09
2018-07-30T18:22:28.153Z,104120.65
2018-07-30T18:24:06.440Z,104142.38
2018-07-30T18:25:44.541Z,104016.42
2018-07-30T18:27:21.419Z,104077.77
2018-07-30T18:29:02.531Z,104056.40
2018-07-30T18:30:40.602Z,104035.02
2018-07-30T18:32:22.475Z,104003.16
2018-07-30T18:34:02.598Z,104020.38
2018-07-30T18:35:42.490Z,104068.56
2018-07-30T18:37:23.561Z,104027.20
2018-07-30T18:39:04.885Z,104056.71
2018-07-30T18:40:45.482Z,104058.88
2018-07-30T18:42:23.450Z,103945.20
2018-07-30T18:45:39.803Z,103832.83
2018-07-30T18:47:18.629Z,103866.45
2018-07-30T18:48:56.571Z,103924.73
2018-07-30T18:50:37.312Z,103945.60
2018-07-30T18:52:17.551Z,103906.88
2018-07-30T18:53:54.505Z,103908.18
2018-07-30T18:55:30.981Z,103901.84
2018-07-30T18:57:08.005Z,103910.45
2018-07-30T18:58:48.495Z,103924.61
2018-07-30T19:00:27.281Z,103904.03
2018-07-30T19:02:09.524Z,103866.85
2018-07-30T19:03:47.370Z,103873.16
2018-07-30T19:05:27.931Z,103826.31
2018-07-30T19:07:05.485Z,103832.73
2018-07-30T19:08:41.982Z,103765.41
2018-07-30T19:10:20.572Z,103747.23
2018-07-30T19:11:59.453Z,103754.95
2018-07-30T19:13:36.571Z,103711.76
2018-07-30T19:15:16.383Z,103656.43
2018-07-30T19:16:59.655Z,103642.29
2018-07-30T19:18:39.525Z,103564.67
2018-07-30T19:20:17.875Z,103483.14
2018-07-30T19:21:57.425Z,103460.45
2018-07-30T19:23:36.484Z,103403.72
2018-07-30T19:25:13.511Z,103331.23
2018-07-30T19:26:52.151Z,103203.34
2018-07-30T19:28:30.264Z,103191.63